Time;durP1;ratioP1;P1;durP2;ratioP2;P2;SDS_P1;SDS_P2;PMS_P1;PMS_P2;Temp;Humidity;BMP_temperature;BMP_pressure;BME280_temperature;BME280_humidity;BME280_pressure;Samples;Min_cycle;Max_cycle;Signal;HPM_P1;HPM_P2
2021/06/25 00:00:57;;;;;;;0.10;0.10;;;;;;;15.73;58.40;102050.94;5035320;28;20132;-78
2021/06/25 00:03:24;;;;;;;0.00;0.00;;;;;;;15.69;58.45;102048.31;5034624;28;20028;-80
2021/06/25 00:05:51;;;;;;;0.30;0.30;;;;;;;15.63;58.77;102040.44;5035162;28;20079;-79
2021/06/25 00:08:17;;;;;;;0.25;0.25;;;;;;;15.59;58.80;102043.19;5028121;28;20123;-79
2021/06/25 00:10:44;;;;;;;0.63;0.63;;;;;;;15.58;59.27;102044.13;5028569;28;20419;-80
2021/06/25 00:13:10;;;;;;;0.10;0.10;;;;;;;15.53;59.26;102036.22;5034622;28;20507;-80
2021/06/25 00:15:37;;;;;;;0.10;0.10;;;;;;;15.53;59.36;102042.41;5035293;28;20395;-79
2021/06/25 00:18:03;;;;;;;0.30;0.30;;;;;;;15.52;59.11;102040.66;5034441;28;20029;-79
2021/06/25 00:20:31;;;;;;;0.10;0.10;;;;;;;15.52;59.30;102037.13;5034720;28;20112;-79
2021/06/25 00:22:57;;;;;;;0.10;0.10;;;;;;;15.47;59.38;102031.88;5033802;28;20060;-80
2021/06/25 00:25:24;;;;;;;0.10;0.10;;;;;;;15.46;59.14;102035.44;5034392;28;20465;-80
2021/06/25 00:27:50;;;;;;;0.00;0.00;;;;;;;15.46;58.91;102029.25;5031901;28;20029;-79
2021/06/25 00:30:17;;;;;;;2.30;0.47;;;;;;;15.44;59.26;102037.28;5029528;28;20033;-79
2021/06/25 00:32:45;;;;;;;0.00;0.00;;;;;;;15.43;59.42;102030.19;5034181;28;20061;-79
2021/06/25 00:35:12;;;;;;;0.10;0.10;;;;;;;15.44;59.51;102028.38;5034155;28;20473;-80
2021/06/25 00:37:38;;;;;;;0.10;0.10;;;;;;;15.43;59.49;102030.19;5033480;28;20071;-79
2021/06/25 00:40:06;;;;;;;0.10;0.10;;;;;;;15.48;59.29;102033.63;5034289;28;20091;-79
2021/06/25 00:42:33;;;;;;;0.20;0.20;;;;;;;15.43;59.19;102026.66;5034131;28;20026;-79
2021/06/25 00:45:17;;;;;;;0.10;0.10;;;;;;;15.47;59.54;102029.19;5034172;28;20033;-79
2021/06/25 00:47:46;;;;;;;0.00;0.00;;;;;;;15.41;59.95;102029.31;5020178;28;20037;-79
2021/06/25 00:50:15;;;;;;;0.00;0.00;;;;;;;15.37;60.33;102025.84;5023614;28;20156;-79
2021/06/25 00:52:43;;;;;;;0.45;0.45;;;;;;;15.31;60.30;102015.28;5033925;28;20030;-80
2021/06/25 00:55:10;;;;;;;0.15;0.15;;;;;;;15.32;61.16;102016.19;5033578;28;20087;-79
2021/06/25 00:57:37;;;;;;;0.43;0.35;;;;;;;15.31;61.10;102015.28;5033559;28;20027;-79
2021/06/25 01:00:05;;;;;;;1.45;0.57;;;;;;;15.34;60.97;102015.25;5032278;28;20056;-79
2021/06/25 01:02:32;;;;;;;0.10;0.10;;;;;;;15.36;60.59;102001.84;5021657;28;20084;-80
2021/06/25 01:04:58;;;;;;;0.17;0.17;;;;;;;15.35;60.47;102000.97;5029900;28;20025;-81
2021/06/25 01:07:26;;;;;;;0.28;0.28;;;;;;;15.42;60.31;102001.72;5033557;28;20021;-79
2021/06/25 01:09:54;;;;;;;0.10;0.10;;;;;;;15.39;60.47;102006.25;5033571;28;20033;-80
2021/06/25 01:12:20;;;;;;;1.38;1.35;;;;;;;15.32;60.86;101992.16;5026317;28;20030;-81
2021/06/25 01:14:47;;;;;;;0.85;0.85;;;;;;;15.35;60.67;101986.72;5024129;28;20026;-81
2021/06/25 01:17:34;;;;;;;0.90;0.45;;;;;;;15.43;60.37;101982.13;5031571;28;20473;-80
2021/06/25 01:20:06;;;;;;;1.05;1.05;;;;;;;15.34;60.60;101983.19;5033285;28;20067;-81
2021/06/25 01:22:34;;;;;;;0.00;0.00;;;;;;;15.25;60.67;101982.50;5033460;28;20034;-79
2021/06/25 01:25:22;;;;;;;0.65;0.65;;;;;;;15.32;60.74;101986.81;5033516;28;20082;-81
2021/06/25 01:27:52;;;;;;;0.10;0.10;;;;;;;15.25;61.11;101983.38;5019680;28;20021;-80
2021/06/25 01:30:22;;;;;;;0.05;0.05;;;;;;;15.18;61.08;101981.78;5033498;28;20032;-80
2021/06/25 01:32:49;;;;;;;0.20;0.20;;;;;;;15.16;61.63;101979.13;5033345;28;20030;-79
2021/06/25 01:35:18;;;;;;;0.10;0.10;;;;;;;15.13;61.26;101979.19;5032857;28;20480;-79
2021/06/25 01:37:45;;;;;;;1.10;0.38;;;;;;;15.18;61.37;101977.31;5033233;28;20053;-79
2021/06/25 01:40:14;;;;;;;4.00;0.93;;;;;;;15.15;61.73;101974.72;5033332;28;20032;-79
2021/06/25 01:42:43;;;;;;;0.00;0.00;;;;;;;15.20;61.61;101980.81;5033303;28;20022;-79
2021/06/25 01:45:15;;;;;;;1.48;1.38;;;;;;;15.29;61.51;101973.50;5033029;28;20044;-79
2021/06/25 01:47:42;;;;;;;;;;;;;;;15.46;61.27;101971.34;5032580;28;20029;-79
2021/06/25 01:50:13;;;;;;;0.00;0.00;;;;;;;15.46;61.35;101967.81;5033164;28;20319;-79
2021/06/25 01:52:45;;;;;;;0.10;0.10;;;;;;;15.52;61.07;101965.88;5033303;28;20041;-80
2021/06/25 01:55:12;;;;;;;0.30;0.30;;;;;;;15.57;60.98;101959.56;5032803;28;20104;-79
2021/06/25 01:57:39;;;;;;;0.10;0.10;;;;;;;15.64;60.58;101958.50;5032930;28;20298;-79
2021/06/25 02:00:06;;;;;;;0.30;0.30;;;;;;;15.69;60.63;101956.59;5032916;28;20021;-80
2021/06/25 02:02:33;;;;;;;0.32;0.32;;;;;;;15.73;60.50;101952.94;5033349;28;20035;-80
2021/06/25 02:05:00;;;;;;;1.85;1.52;;;;;;;15.67;60.63;101953.94;5033221;28;20159;-80
2021/06/25 02:07:26;;;;;;;0.30;0.30;;;;;;;15.87;60.16;101954.44;5032897;28;20104;-79
2021/06/25 02:09:53;;;;;;;1.33;1.23;;;;;;;15.90;60.63;101951.69;5032814;28;20082;-79
2021/06/25 02:12:19;;;;;;;0.80;0.80;;;;;;;15.93;60.28;101948.94;5033151;28;20025;-78
2021/06/25 02:14:45;;;;;;;0.10;0.10;;;;;;;16.06;60.13;101952.19;5033009;28;20449;-78
2021/06/25 02:17:12;;;;;;;0.20;0.20;;;;;;;16.10;60.16;101949.41;5032804;28;20029;-79
2021/06/25 02:19:38;;;;;;;0.30;0.30;;;;;;;16.11;60.41;101948.47;5033013;28;20108;-79
2021/06/25 02:22:05;;;;;;;0.50;0.50;;;;;;;16.14;60.04;101935.03;5032911;28;20022;-79
2021/06/25 02:24:32;;;;;;;0.50;0.50;;;;;;;16.13;60.35;101940.41;5033123;28;20396;-79
2021/06/25 02:26:59;;;;;;;0.10;0.10;;;;;;;16.22;60.20;101955.34;5032791;28;20029;-79
2021/06/25 02:29:25;;;;;;;0.30;0.30;;;;;;;16.20;60.18;101951.81;5032666;28;20400;-79
2021/06/25 02:31:52;;;;;;;0.90;0.90;;;;;;;16.25;59.73;101945.44;5032632;28;20021;-79
2021/06/25 02:34:19;;;;;;;0.10;0.10;;;;;;;16.21;60.08;101949.09;5033073;28;20044;-78
2021/06/25 02:36:46;;;;;;;0.38;0.38;;;;;;;16.18;60.17;101946.53;5032734;28;20149;-80
2021/06/25 02:39:13;;;;;;;0.63;0.57;;;;;;;16.28;60.23;101944.50;5032848;28;20021;-79
2021/06/25 02:41:40;;;;;;;0.22;0.15;;;;;;;16.20;60.69;101939.34;5032755;28;20025;-80
2021/06/25 02:44:07;;;;;;;0.10;0.10;;;;;;;16.25;60.61;101936.53;5032678;28;20022;-79
2021/06/25 02:46:34;;;;;;;1.67;1.15;;;;;;;16.28;60.69;101926.63;5033629;28;20416;-79
2021/06/25 02:49:00;;;;;;;0.30;0.30;;;;;;;16.33;60.89;101931.88;5036144;28;20025;-79
2021/06/25 02:51:27;;;;;;;3.90;1.25;;;;;;;16.37;60.25;101933.53;5036190;28;20083;-79
2021/06/25 02:53:53;;;;;;;0.60;0.60;;;;;;;16.36;60.71;101926.41;5035100;28;20096;-79
2021/06/25 02:56:19;;;;;;;1.05;1.05;;;;;;;16.45;60.26;101925.31;5035808;28;20454;-81
2021/06/25 02:58:46;;;;;;;0.68;0.68;;;;;;;16.49;60.03;101922.50;5035953;28;20492;-80
2021/06/25 03:01:12;;;;;;;0.50;0.50;;;;;;;16.49;60.52;101917.16;5034367;28;20029;-79
2021/06/25 03:03:39;;;;;;;0.77;0.77;;;;;;;16.45;60.85;101914.63;5035630;28;20025;-79
2021/06/25 03:06:05;;;;;;;0.10;0.10;;;;;;;16.39;60.86;101912.97;5035778;28;20025;-79
2021/06/25 03:08:32;;;;;;;0.45;0.45;;;;;;;16.43;60.73;101906.63;5035840;28;20022;-80
2021/06/25 03:11:00;;;;;;;0.57;0.43;;;;;;;16.43;60.46;101906.63;5035289;28;20389;-79
2021/06/25 03:13:27;;;;;;;0.55;0.55;;;;;;;16.54;60.63;101897.44;5035373;28;20036;-79
2021/06/25 03:15:54;;;;;;;1.73;0.98;;;;;;;16.55;60.85;101905.41;5036047;28;20030;-79
2021/06/25 03:18:21;;;;;;;5.93;1.20;;;;;;;16.64;59.76;101898.91;5035820;28;20030;-79
2021/06/25 03:20:48;;;;;;;0.10;0.10;;;;;;;16.71;60.46;101891.59;5034564;28;20025;-79
2021/06/25 03:23:14;;;;;;;0.22;0.22;;;;;;;16.79;59.75;101894.94;5035751;28;20484;-80
2021/06/25 03:25:41;;;;;;;0.40;0.40;;;;;;;16.72;60.38;101896.88;5035526;28;20388;-78
2021/06/25 03:28:08;;;;;;;0.00;0.00;;;;;;;16.78;59.83;101896.69;5035530;28;20080;-79
2021/06/25 03:30:35;;;;;;;0.10;0.10;;;;;;;16.85;59.44;101891.16;5035605;28;20048;-79
2021/06/25 03:33:01;;;;;;;0.22;0.22;;;;;;;16.77;60.37;101894.09;5035720;28;20072;-78
2021/06/25 03:35:28;;;;;;;0.00;0.00;;;;;;;16.79;60.09;101884.22;5019236;28;20087;-79
2021/06/25 03:37:54;;;;;;;0.08;0.08;;;;;;;16.76;60.03;101879.84;5035310;28;20100;-79
2021/06/25 03:40:21;;;;;;;0.98;0.98;;;;;;;16.80;59.84;101877.94;5035380;28;20422;-78
2021/06/25 03:42:47;;;;;;;1.85;0.90;;;;;;;16.87;59.69;101881.31;5034821;28;20057;-79
2021/06/25 03:45:15;;;;;;;0.10;0.10;;;;;;;16.92;59.38;101884.75;5034925;28;20030;-79
2021/06/25 03:47:42;;;;;;;0.13;0.13;;;;;;;17.00;59.50;101884.50;5033868;28;20381;-79
2021/06/25 03:50:10;;;;;;;0.60;0.60;;;;;;;16.99;59.52;101878.28;5034992;28;20034;-79
2021/06/25 03:52:37;;;;;;;0.13;0.13;;;;;;;16.99;59.48;101875.63;5035023;28;20025;-79
2021/06/25 03:55:09;;;;;;;0.55;0.55;;;;;;;17.12;58.83;101879.69;5035019;28;20080;-79
2021/06/25 03:57:36;;;;;;;0.40;0.40;;;;;;;17.11;59.53;101869.88;5035166;28;20057;-79
2021/06/25 04:00:05;;;;;;;0.13;0.13;;;;;;;17.14;58.86;101876.94;5035198;28;20017;-79
2021/06/25 04:02:31;;;;;;;0.20;0.20;;;;;;;17.08;59.14;101869.97;5034930;28;20038;-79
2021/06/25 04:04:57;;;;;;;1.10;1.10;;;;;;;17.14;59.12;101872.47;5034885;28;20029;-79
2021/06/25 04:07:26;;;;;;;0.50;0.50;;;;;;;17.09;59.22;101863.69;5034587;28;20109;-79
2021/06/25 04:09:53;;;;;;;0.10;0.10;;;;;;;17.13;59.08;101865.38;5034990;28;20034;-80
2021/06/25 04:12:19;;;;;;;0.63;0.63;;;;;;;17.17;59.34;101859.91;5034871;28;20029;-79
2021/06/25 04:14:46;;;;;;;0.75;0.75;;;;;;;17.17;59.02;101859.91;5034880;28;20396;-81
2021/06/25 04:17:12;;;;;;;0.25;0.25;;;;;;;17.17;58.85;101859.91;5034529;28;20037;-79
2021/06/25 04:19:47;;;;;;;1.23;0.25;;;;;;;17.22;58.94;101855.28;5034471;28;20022;-78
2021/06/25 04:22:20;;;;;;;0.85;0.85;;;;;;;17.20;58.97;101858.00;5034599;28;20369;-78
2021/06/25 04:24:47;;;;;;;0.10;0.10;;;;;;;17.28;58.67;101852.41;5034721;28;20038;-79
2021/06/25 04:27:15;;;;;;;0.88;0.88;;;;;;;17.31;58.90;101857.69;5034506;28;20086;-79
2021/06/25 04:29:43;;;;;;;0.10;0.10;;;;;;;17.25;58.95;101849.84;5034453;28;20380;-78
2021/06/25 04:32:09;;;;;;;0.10;0.08;;;;;;;17.28;58.80;101847.03;5032316;28;20021;-78
2021/06/25 04:34:36;;;;;;;0.00;0.00;;;;;;;17.31;58.75;101846.97;5032136;28;20021;-78
2021/06/25 04:37:02;;;;;;;1.25;0.55;;;;;;;17.32;58.48;101846.03;5033959;28;20036;-80
2021/06/25 04:39:29;;;;;;;0.30;0.30;;;;;;;17.22;59.34;101836.53;5032990;28;20358;-80
2021/06/25 04:41:55;;;;;;;0.10;0.10;;;;;;;17.34;58.82;101832.59;5034304;28;20026;-79
2021/06/25 04:44:21;;;;;;;0.10;0.10;;;;;;;17.38;58.39;101835.09;5034196;28;20080;-79
2021/06/25 04:46:47;;;;;;;0.20;0.20;;;;;;;17.48;58.46;101842.84;5020829;28;20029;-79
2021/06/25 04:49:13;;;;;;;1.65;0.80;;;;;;;17.36;58.37;101839.66;5032093;28;20048;-79
2021/06/25 04:51:39;;;;;;;1.55;0.82;;;;;;;17.43;57.91;101841.22;5034224;28;20049;-79
2021/06/25 04:54:06;;;;;;;2.30;1.58;;;;;;;17.45;58.06;101833.13;5033801;28;20429;-81
2021/06/25 04:56:32;;;;;;;1.63;1.52;;;;;;;17.50;57.76;101833.84;5033387;28;20029;-80
2021/06/25 04:58:58;;;;;;;0.15;0.15;;;;;;;17.62;57.88;101835.25;5026190;28;20037;-79
2021/06/25 05:01:24;;;;;;;0.10;0.10;;;;;;;17.65;57.38;101831.56;5033615;28;20496;-78
2021/06/25 05:03:50;;;;;;;0.22;0.22;;;;;;;17.69;56.84;101826.03;5033967;28;20045;-79
2021/06/25 05:06:16;;;;;;;0.68;0.68;;;;;;;17.72;56.59;101831.31;5033163;28;20021;-79
2021/06/25 05:08:43;;;;;;;0.15;0.15;;;;;;;17.73;56.52;101833.06;5033658;28;20030;-80
2021/06/25 05:11:09;;;;;;;2.10;0.63;;;;;;;17.69;56.51;101827.84;5032013;28;20362;-79
2021/06/25 05:13:35;;;;;;;2.95;1.35;;;;;;;17.83;56.64;101827.38;5033563;28;20029;-81
2021/06/25 05:16:01;;;;;;;0.75;0.40;;;;;;;17.92;56.56;101819.03;5026980;28;20057;-79
2021/06/25 05:18:27;;;;;;;0.77;0.77;;;;;;;18.03;56.84;101819.53;5029006;28;20030;-79
2021/06/25 05:20:54;;;;;;;0.43;0.43;;;;;;;18.16;56.32;101813.75;5033917;28;20037;-79
2021/06/25 05:23:21;;;;;;;0.15;0.15;;;;;;;18.22;56.20;101810.84;5033668;28;20136;-78
2021/06/25 05:25:47;;;;;;;0.10;0.10;;;;;;;18.20;56.13;101810.88;5035958;28;20095;-80
2021/06/25 05:28:14;;;;;;;0.10;0.10;;;;;;;18.35;56.57;101817.47;5025295;28;20038;-79
2021/06/25 05:30:40;;;;;;;0.30;0.30;;;;;;;18.40;56.65;101815.50;5033787;28;20036;-78
2021/06/25 05:33:06;;;;;;;0.20;0.20;;;;;;;18.41;56.28;101811.88;5042833;28;20033;-78
2021/06/25 05:35:34;;;;;;;0.22;0.22;;;;;;;18.48;56.53;101806.28;5042781;28;20365;-78
2021/06/25 05:38:04;;;;;;;0.10;0.10;;;;;;;18.56;56.31;101805.06;5044290;28;20112;-79
2021/06/25 05:40:30;;;;;;;0.32;0.32;;;;;;;18.56;56.82;101805.06;5035365;28;20036;-83
2021/06/25 05:42:57;;;;;;;0.45;0.45;;;;;;;18.60;56.14;101803.13;5031513;28;20502;-84
2021/06/25 05:45:24;;;;;;;1.00;0.90;;;;;;;18.71;56.40;101806.28;5033750;28;20037;-81
2021/06/25 05:47:50;;;;;;;0.70;0.70;;;;;;;18.80;56.00;101806.88;5029439;28;20163;-80
2021/06/25 05:50:17;;;;;;;0.30;0.30;;;;;;;18.91;56.36;101802.84;5029618;28;20088;-79
2021/06/25 05:52:45;;;;;;;0.20;0.20;;;;;;;18.94;56.11;101804.56;5033475;28;20075;-80
2021/06/25 05:55:11;;;;;;;0.38;0.38;;;;;;;18.93;56.18;101805.47;5020694;28;20036;-80
2021/06/25 05:57:38;;;;;;;0.22;0.22;;;;;;;18.95;56.58;101813.47;5022873;28;20033;-79
2021/06/25 06:00:07;;;;;;;5.60;1.45;;;;;;;19.08;56.54;101801.31;5020366;28;20065;-80
2021/06/25 06:02:33;;;;;;;0.75;0.75;;;;;;;19.11;56.31;101806.53;5023066;28;20037;-81
2021/06/25 06:04:59;;;;;;;0.80;0.80;;;;;;;19.18;56.49;101801.81;5025715;28;20033;-80
2021/06/25 06:07:27;;;;;;;0.10;0.10;;;;;;;19.20;56.56;101799.91;5038156;28;20030;-79
2021/06/25 06:09:53;;;;;;;0.10;0.10;;;;;;;19.07;57.05;101805.78;5041494;28;20064;-79
2021/06/25 06:12:20;;;;;;;0.20;0.20;;;;;;;19.20;57.33;101806.19;5042964;28;20025;-80
2021/06/25 06:14:46;;;;;;;0.47;0.47;;;;;;;19.42;57.01;101804.41;5043175;28;20026;-79
2021/06/25 06:17:13;;;;;;;0.10;0.10;;;;;;;19.49;56.80;101797.81;5041755;28;20449;-80
2021/06/25 06:19:41;;;;;;;0.55;0.55;;;;;;;19.54;56.83;101803.91;5041893;28;20108;-79
2021/06/25 06:36:00;;;;;;;0.95;0.95;;;;;;;19.62;57.01;101811.63;5042802;28;20026;-79
2021/06/25 06:38:28;;;;;;;0.15;0.15;;;;;;;19.76;57.20;101817.28;5044797;28;20113;-81
2021/06/25 06:40:54;;;;;;;0.17;0.17;;;;;;;19.78;57.02;101814.53;5056705;28;20036;-79
2021/06/25 06:43:21;;;;;;;4.18;1.30;;;;;;;19.70;57.43;101820.22;5056149;28;20033;-79
2021/06/25 06:45:47;;;;;;;0.10;0.10;;;;;;;19.67;57.74;101813.16;5047669;28;20025;-81
2021/06/25 06:48:13;;;;;;;2.88;1.33;;;;;;;19.72;57.29;101811.16;5052259;28;20044;-81
2021/06/25 06:50:39;;;;;;;0.45;0.45;;;;;;;19.78;57.46;101809.16;5054991;28;20134;-79
2021/06/25 06:53:05;;;;;;;0.52;0.38;;;;;;;19.78;57.61;101814.53;5056199;28;20481;-80
2021/06/25 06:55:31;;;;;;;4.97;1.40;;;;;;;19.87;57.33;101808.78;5056418;28;20044;-81
2021/06/25 06:57:58;;;;;;;2.78;2.55;;;;;;;19.75;57.76;101814.66;5056120;28;20021;-80
2021/06/25 07:00:24;;;;;;;0.52;0.52;;;;;;;19.72;57.99;101811.16;5056037;28;20029;-80
2021/06/25 07:02:50;;;;;;;1.08;1.08;;;;;;;19.77;58.08;101810.09;5056167;28;20499;-81
2021/06/25 07:05:17;;;;;;;1.40;1.08;;;;;;;19.77;58.57;101804.72;5055479;28;20040;-80
2021/06/25 07:07:43;;;;;;;1.15;1.15;;;;;;;19.79;58.14;101801.03;5048579;28;20037;-80
2021/06/25 07:10:10;;;;;;;1.02;1.02;;;;;;;19.89;57.63;101812.28;5035868;28;20037;-80
2021/06/25 07:12:37;;;;;;;0.28;0.28;;;;;;;19.93;57.36;101805.81;5035167;28;20117;-82
2021/06/25 07:15:08;;;;;;;1.65;1.55;;;;;;;20.05;57.12;101807.09;5032564;28;20537;-80
2021/06/25 07:17:35;;;;;;;0.28;0.28;;;;;;;19.85;57.63;101807.97;5034721;28;20036;-79
2021/06/25 07:20:03;;;;;;;0.10;0.10;;;;;;;20.04;57.08;101808.91;5044957;28;20094;-79
2021/06/25 07:22:29;;;;;;;0.15;0.15;;;;;;;19.82;57.18;101800.00;5044057;28;20177;-80
2021/06/25 07:24:55;;;;;;;0.10;0.10;;;;;;;20.07;56.86;101810.59;5043175;28;20029;-79
2021/06/25 07:27:21;;;;;;;0.30;0.30;;;;;;;20.06;56.83;101808.81;5044574;28;20123;-79
2021/06/25 07:29:47;;;;;;;0.00;0.00;;;;;;;20.14;56.65;101811.19;5042587;28;20033;-79
2021/06/25 07:32:14;;;;;;;0.20;0.20;;;;;;;20.06;56.27;101814.22;5037683;28;20112;-79
2021/06/25 07:34:40;;;;;;;0.70;0.70;;;;;;;20.18;56.22;101810.09;5034338;28;20029;-80
2021/06/25 07:37:06;;;;;;;0.20;0.20;;;;;;;20.20;56.16;101806.41;5033982;28;20033;-80
2021/06/25 07:39:33;;;;;;;0.77;0.77;;;;;;;20.58;55.65;101800.19;5034129;28;20072;-81
2021/06/25 07:41:59;;;;;;;0.82;0.82;;;;;;;20.82;55.78;101808.97;5032774;28;20033;-80
2021/06/25 07:44:27;;;;;;;0.80;0.50;;;;;;;20.81;54.77;101817.09;5034127;28;20144;-85
2021/06/25 07:46:53;;;;;;;0.70;0.68;;;;;;;20.77;54.59;101812.81;5034175;28;20032;-82
2021/06/25 07:49:19;;;;;;;0.20;0.20;;;;;;;20.84;55.14;101819.66;5033392;28;20069;-82
2021/06/25 07:51:45;;;;;;;0.50;0.50;;;;;;;21.20;54.55;101805.34;5033990;28;20032;-83
2021/06/25 07:54:11;;;;;;;0.47;0.47;;;;;;;21.14;53.88;101811.91;5033821;28;20025;-82
2021/06/25 07:56:37;;;;;;;0.22;0.22;;;;;;;20.98;54.80;101814.47;5033850;28;20029;-82
2021/06/25 07:59:04;;;;;;;2.90;1.38;;;;;;;21.24;53.94;101808.75;5033768;28;20113;-82
2021/06/25 08:01:30;;;;;;;1.63;1.17;;;;;;;21.50;53.66;101812.84;5033689;28;20488;-81
2021/06/25 08:03:58;;;;;;;0.45;0.45;;;;;;;21.73;53.07;101805.41;5033688;28;20392;-82
2021/06/25 08:06:27;;;;;;;0.80;0.80;;;;;;;21.86;52.43;101800.25;5033591;28;20053;-82
2021/06/25 08:08:54;;;;;;;0.20;0.20;;;;;;;21.94;52.58;101798.91;5033061;28;20034;-81
2021/06/25 08:11:20;;;;;;;3.20;0.55;;;;;;;22.09;52.20;101797.22;5024102;28;20026;-82
2021/06/25 08:13:46;;;;;;;1.65;0.80;;;;;;;22.11;51.41;101789.91;5039419;28;20037;-81
2021/06/25 08:16:13;;;;;;;0.10;0.10;;;;;;;22.13;51.40;101796.09;5033686;28;20129;-81
2021/06/25 08:18:39;;;;;;;0.25;0.25;;;;;;;22.22;51.84;101791.13;5036889;28;20448;-81
2021/06/25 08:21:05;;;;;;;0.40;0.40;;;;;;;22.39;50.77;101790.25;5035985;28;20180;-81
2021/06/25 08:23:32;;;;;;;0.40;0.40;;;;;;;22.30;50.60;101795.16;5043466;28;20020;-80
2021/06/25 08:25:58;;;;;;;1.45;0.45;;;;;;;22.34;50.66;101803.13;5035738;28;20041;-81
2021/06/25 08:28:24;;;;;;;0.10;0.10;;;;;;;22.27;50.53;101798.06;5033137;28;20030;-81
2021/06/25 08:30:50;;;;;;;0.40;0.40;;;;;;;21.89;51.39;101794.72;5033373;28;20065;-81
2021/06/25 08:33:17;;;;;;;0.20;0.20;;;;;;;22.09;51.17;101796.34;5033229;28;20029;-80
2021/06/25 08:35:44;;;;;;;0.50;0.50;;;;;;;22.12;51.10;101796.19;5032903;28;20057;-81
2021/06/25 08:38:10;;;;;;;2.67;2.45;;;;;;;22.18;51.77;101795.88;5032785;28;20490;-81
2021/06/25 08:40:37;;;;;;;0.68;0.68;;;;;;;22.27;51.22;101792.66;5033167;28;20116;-81
2021/06/25 08:43:05;;;;;;;0.30;0.30;;;;;;;22.56;51.42;101789.34;5036567;28;20034;-81
2021/06/25 08:45:31;;;;;;;0.10;0.10;;;;;;;22.78;50.99;101784.47;5034008;28;20120;-82
2021/06/25 08:47:58;;;;;;;0.98;0.98;;;;;;;22.73;50.95;101791.97;5031947;28;20481;-84
2021/06/25 08:50:25;;;;;;;1.95;0.75;;;;;;;23.00;50.80;101793.19;5031400;28;20026;-84
2021/06/25 08:52:56;;;;;;;1.20;1.10;;;;;;;22.92;50.00;101780.97;5032023;28;20103;-85
2021/06/25 08:55:23;;;;;;;0.98;0.77;;;;;;;23.23;49.63;101776.53;5042037;28;20031;-84
2021/06/25 08:57:58;;;;;;;0.85;0.85;;;;;;;23.52;49.49;101782.03;5038316;28;20059;-83
2021/06/25 09:00:24;;;;;;;1.50;0.85;;;;;;;23.53;48.66;101774.81;5052067;28;20044;-84
2021/06/25 09:02:51;;;;;;;0.10;0.10;;;;;;;23.56;48.89;101775.50;5051154;28;20322;-84
2021/06/25 09:08:04;;;;;;;0.15;0.15;;;;;;;23.60;49.21;101765.31;5071273;27;20411;-83
2021/06/25 09:13:14;;;;;;;0.75;0.75;;;;;;;23.59;48.77;101764.47;5089520;27;20482;-84
2021/06/25 09:15:42;;;;;;;0.38;0.38;;;;;;;23.70;48.88;101755.72;5063692;28;20037;-82
2021/06/25 09:18:11;;;;;;;0.30;0.30;;;;;;;23.71;48.96;101756.56;5056176;28;20052;-82
2021/06/25 09:26:20;;;;;;;0.80;0.80;;;;;;;24.02;48.08;101760.13;5086725;27;20405;-82
2021/06/25 09:28:48;;;;;;;0.32;0.32;;;;;;;24.14;47.49;101764.75;5069632;28;20033;-81
2021/06/25 09:31:17;;;;;;;1.00;1.00;;;;;;;23.96;48.01;101765.91;5069388;28;20033;-82
2021/06/25 09:36:31;;;;;;;0.50;0.50;;;;;;;24.22;48.17;101767.88;5085324;27;20419;-82
2021/06/25 09:41:46;;;;;;;0.50;0.50;;;;;;;23.94;47.88;101778.66;5028328;28;20460;-80
2021/06/25 09:44:18;;;;;;;2.47;1.00;;;;;;;24.25;47.77;101768.63;5029714;28;20037;-79
2021/06/25 09:46:50;;;;;;;0.47;0.47;;;;;;;24.16;47.86;101762.84;5022869;28;20121;-81
2021/06/25 09:49:23;;;;;;;1.27;1.20;;;;;;;24.15;47.79;101769.22;5009831;28;20038;-80
2021/06/25 09:54:38;;;;;;;0.47;0.47;;;;;;;23.63;49.19;101780.50;5110050;27;20117;-81
2021/06/25 09:57:09;;;;;;;6.32;3.22;;;;;;;23.73;48.63;101770.88;5110047;28;20028;-82
2021/06/25 10:02:26;;;;;;;1.05;1.05;;;;;;;23.54;49.48;101772.00;5130545;27;20334;-85
2021/06/25 10:04:55;;;;;;;2.17;1.83;;;;;;;23.30;49.75;101776.16;5130487;27;20031;-84
2021/06/25 10:10:09;;;;;;;2.83;2.63;;;;;;;23.17;50.15;101776.88;5089069;27;20436;-81
2021/06/25 10:12:38;;;;;;;3.40;1.03;;;;;;;23.12;50.46;101780.81;5069722;28;20036;-81
2021/06/25 10:15:05;;;;;;;0.95;0.88;;;;;;;23.11;51.60;101779.91;5068526;28;20271;-82
2021/06/25 10:17:34;;;;;;;3.45;1.98;;;;;;;22.93;51.52;101782.72;5055948;28;20431;-81
2021/06/25 10:20:07;;;;;;;1.98;1.88;;;;;;;23.16;51.24;101780.53;5048683;28;20067;-81
2021/06/25 10:22:35;;;;;;;6.50;1.73;;;;;;;23.08;51.22;101780.97;5049341;28;20029;-81
2021/06/25 10:25:04;;;;;;;7.45;3.70;;;;;;;22.87;51.76;101787.63;5048895;28;20401;-80
2021/06/25 10:27:31;;;;;;;1.40;1.30;;;;;;;22.79;52.36;101782.63;5048638;28;20034;-81
2021/06/25 10:29:58;;;;;;;1.90;1.75;;;;;;;22.86;51.80;101789.44;5049299;28;20060;-81
2021/06/25 10:32:25;;;;;;;0.95;0.95;;;;;;;22.77;51.90;101781.84;5048981;28;20040;-80
2021/06/25 10:34:51;;;;;;;3.92;2.72;;;;;;;22.54;52.65;101785.84;5048525;28;20045;-80
2021/06/25 10:37:22;;;;;;;4.18;1.13;;;;;;;22.67;52.63;101792.31;5047317;28;20079;-81
2021/06/25 10:39:48;;;;;;;34.08;2.97;;;;;;;22.08;53.49;101794.59;5046465;28;20485;-80
2021/06/25 10:42:15;;;;;;;5.78;1.08;;;;;;;21.96;53.50;101797.00;5047618;28;20017;-82
2021/06/25 10:47:30;;;;;;;2.00;1.58;;;;;;;22.05;53.27;101800.16;5066791;27;20455;-80
2021/06/25 10:53:20;;;;;;;0.75;0.55;;;;;;;21.73;54.02;101792.81;5076744;28;20435;-82
2021/06/25 10:56:02;;;;;;;1.70;1.60;;;;;;;22.01;53.85;101793.16;5066532;28;20446;-82
2021/06/25 10:58:28;;;;;;;2.58;1.13;;;;;;;21.69;54.51;101804.69;5047652;28;20025;-82
2021/06/25 11:01:00;;;;;;;1.17;1.08;;;;;;;21.79;54.03;101797.00;5049189;28;20543;-81
2021/06/25 11:03:38;;;;;;;2.58;1.60;;;;;;;21.59;54.70;101807.00;5048301;28;20079;-81
2021/06/25 11:06:09;;;;;;;0.43;0.43;;;;;;;21.76;54.47;101800.75;5049142;28;20033;-82
2021/06/25 11:08:35;;;;;;;0.33;0.33;;;;;;;21.69;54.78;101802.00;5049349;28;20104;-81
2021/06/25 11:11:02;;;;;;;0.15;0.15;;;;;;;21.63;54.75;101803.22;5047611;28;20035;-82
2021/06/25 11:13:35;;;;;;;4.50;0.73;;;;;;;21.49;55.57;101808.41;5049287;28;20597;-83
2021/06/25 11:16:20;;;;;;;0.17;0.17;;;;;;;21.32;56.42;101809.22;5048354;28;20044;-83
2021/06/25 11:18:46;;;;;;;0.75;0.75;;;;;;;21.06;57.03;101814.13;5048265;28;20080;-81
2021/06/25 11:21:13;;;;;;;2.38;0.47;;;;;;;20.93;58.16;101812.97;5045782;28;20118;-82
2021/06/25 11:26:25;;;;;;;0.38;0.38;;;;;;;21.22;57.64;101803.47;5065946;28;20471;-80
2021/06/25 11:28:54;;;;;;;1.00;0.63;;;;;;;21.03;58.77;101816.09;5048367;28;20029;-81
2021/06/25 11:31:22;;;;;;;1.45;1.40;;;;;;;21.25;57.79;101810.50;5047724;28;20087;-80
2021/06/25 11:39:12;;;;;;;0.52;0.52;;;;;;;21.48;56.92;101799.44;5074252;27;20788;-81
2021/06/25 11:52:35;;;;;;;0.10;0.10;;;;;;;21.44;56.77;101794.28;5089734;28;20405;-80
2021/06/25 11:55:06;;;;;;;0.28;0.28;;;;;;;21.57;56.31;101786.47;5064335;28;20025;-82
2021/06/25 11:57:36;;;;;;;0.35;0.35;;;;;;;21.54;56.57;101802.78;5056411;28;20047;-81
2021/06/25 12:00:20;;;;;;;0.63;0.38;;;;;;;21.70;56.36;101789.41;5054308;28;20032;-82
2021/06/25 12:05:33;;;;;;;0.57;0.57;;;;;;;21.71;56.36;101801.91;5069346;28;20439;-80
2021/06/25 12:08:16;;;;;;;0.35;0.35;;;;;;;21.97;55.14;101793.34;5033114;28;20033;-81
2021/06/25 12:10:59;;;;;;;2.80;1.00;;;;;;;22.01;55.14;101787.78;5028154;28;20038;-81
2021/06/25 12:13:26;;;;;;;0.30;0.30;;;;;;;22.07;55.39;101788.34;5029194;28;20117;-85
2021/06/25 12:15:53;;;;;;;0.95;0.57;;;;;;;22.20;54.81;101793.94;5029428;28;20030;-82
2021/06/25 12:18:24;;;;;;;0.40;0.30;;;;;;;22.11;54.51;101789.03;5081562;22;20045;-89
2021/06/25 12:23:54;;;;;;;0.57;0.57;;;;;;;22.23;54.13;101788.38;5080104;27;20448;-83
2021/06/25 12:26:22;;;;;;;0.10;0.10;;;;;;;22.42;53.56;101782.00;5067021;28;20036;-83
2021/06/25 12:28:52;;;;;;;1.35;1.25;;;;;;;22.50;53.68;101779.75;5041470;28;20365;-83
2021/06/25 12:31:21;;;;;;;0.65;0.65;;;;;;;22.73;53.20;101785.66;5049673;28;20111;-82
2021/06/25 12:33:50;;;;;;;0.30;0.30;;;;;;;22.75;53.17;101791.88;5049210;28;20536;-83
2021/06/25 12:36:17;;;;;;;0.75;0.75;;;;;;;22.64;52.75;101791.59;5049870;28;20056;-83